Federal Yukon — V7RG8 — position and weather

sailwx.info

Track history (hours):
 
Tides and Currents Weather Stations Pressure Air Temp Water Temp Dewpoint Dewpoint Depression Visibility Wind Speed Wind Dir Waves Ship Positions

Federal Yukon

Last reported at 2018-Jun-15 22:55 UTC. Time now 2018-Jun-25 19:45 UTC.
Position N 42°42' E 027°58'.
Warning: this ship's position is 9 days out of date.

Length 200 m; draft 5.6 m.

Type: Cargo ship. MMSI: 538006787.

Date/timePositionNaut miles runAvg speedWind from/ knotsBaromVisibWave heightAir tempDewpointWater temp
2018-Jun-15 22:55N 42°42' E 027°58'3010.1
2018-Jun-15 19:54N 42°18' E 028°23'512.9
2018-Jun-15 19:30N 42°14' E 028°28'712.9
2018-Jun-15 18:58N 42°09' E 028°34'613.0
2018-Jun-15 18:30N 42°04' E 028°39'2313.1
2018-Jun-15 16:43N 41°48' E 029°02'313.5
2018-Jun-15 16:30N 41°46' E 029°04'713.6
2018-Jun-15 16:00N 41°41' E 029°10'713.6
2018-Jun-15 15:29N 41°36' E 029°17'612.9
2018-Jun-15 15:00N 41°30' E 029°21'713.5
2018-Jun-15 14:31N 41°24' E 029°20'713.5
2018-Jun-15 14:00N 41°18' E 029°15'713.3
2018-Jun-15 13:30N 41°14' E 029°09'28 4.2
2018-Jun-15 06:55N 40°47' E 028°56'44 6.8
2018-Jun-15 00:29N 40°45' E 027°59'1511.7
2018-Jun-14 23:11N 40°43' E 027°39'211.8
2018-Jun-14 23:00N 40°42' E 027°36'7710.8
2018-Jun-14 15:50N 40°01' E 026°11'5 9.0
2018-Jun-14 15:17N 39°59' E 026°04'3 8.7
2018-Jun-14 14:58N 39°59' E 026°01'4 8.2
2018-Jun-14 14:25N 39°55' E 025°57'5 8.0
2018-Jun-14 13:44N 39°51' E 025°53'2 8.5
2018-Jun-14 13:29N 39°49' E 025°51'4 8.8
2018-Jun-14 13:00N 39°46' E 025°48'3312.2
2018-Jun-14 10:18N 39°18' E 025°24'612.7
2018-Jun-14 09:47N 39°13' E 025°20'412.9
2018-Jun-14 09:30N 39°10' E 025°17'1313.5
2018-Jun-14 08:33N 38°58' E 025°10'214.7
2018-Jun-14 08:27N 38°57' E 025°09'48911.3
2018-Jun-12 13:20N 35°01' E 016°13'1113.2
2018-Jun-12 12:29N 34°59' E 016°00'613.1
2018-Jun-12 12:00N 34°58' E 015°52'712.9
2018-Jun-12 11:30N 34°57' E 015°45'613.0
2018-Jun-12 11:00N 34°55' E 015°37'713.2
2018-Jun-12 10:30N 34°54' E 015°29'613.2
2018-Jun-12 10:00N 34°53' E 015°21'713.1
2018-Jun-12 09:30N 34°52' E 015°13'613.2
2018-Jun-12 09:00N 34°51' E 015°05'7312.8
2018-Jun-12 03:20N 34°40' E 013°38'4212.6
2018-Jun-11 23:59N 34°34' E 012°47'812.4
2018-Jun-11 23:19N 34°32' E 012°37'412.4
2018-Jun-11 22:59N 34°32' E 012°32'612.5
2018-Jun-11 22:30N 34°31' E 012°25'612.7
2018-Jun-11 22:00N 34°30' E 012°17'612.9
2018-Jun-11 21:30N 34°29' E 012°10'712.9
2018-Jun-11 20:57N 34°28' E 012°01'713.0
2018-Jun-11 20:23N 34°27' E 011°52'513.0
2018-Jun-11 20:00N 34°26' E 011°46'613.0
2018-Jun-11 19:30N 34°25' E 011°39'713.1
2018-Jun-11 19:00N 34°24' E 011°31'1313.3
2018-Jun-11 18:01N 34°22' E 011°15'213.4
2018-Jun-11 17:52N 34°21' E 011°13'513.5
2018-Jun-11 17:30N 34°20' E 011°07'  
Track history (hours):
 
Tides and Currents Weather Stations Pressure Air Temp Water Temp Dewpoint Dewpoint Depression Visibility Wind Speed Wind Dir Waves Ship Positions

Federal Yukon

Last reported at 2018-Jun-15 22:55 UTC. Time now 2018-Jun-25 19:45 UTC.
Position N 42°42' E 027°58'.
Warning: this ship's position is 9 days out of date.

Length 200 m; draft 5.6 m.

Type: Cargo ship. MMSI: 538006787.

Date/timePositionNaut miles runAvg speedWind from/ knotsBaromVisibWave heightAir tempDewpointWater temp
2018-Jun-15 22:55N 42°42' E 027°58'3010.1
2018-Jun-15 19:54N 42°18' E 028°23'512.9
2018-Jun-15 19:30N 42°14' E 028°28'712.9
2018-Jun-15 18:58N 42°09' E 028°34'613.0
2018-Jun-15 18:30N 42°04' E 028°39'2313.1
2018-Jun-15 16:43N 41°48' E 029°02'313.5
2018-Jun-15 16:30N 41°46' E 029°04'713.6
2018-Jun-15 16:00N 41°41' E 029°10'713.6
2018-Jun-15 15:29N 41°36' E 029°17'612.9
2018-Jun-15 15:00N 41°30' E 029°21'713.5
2018-Jun-15 14:31N 41°24' E 029°20'713.5
2018-Jun-15 14:00N 41°18' E 029°15'713.3
2018-Jun-15 13:30N 41°14' E 029°09'28 4.2
2018-Jun-15 06:55N 40°47' E 028°56'44 6.8
2018-Jun-15 00:29N 40°45' E 027°59'1511.7
2018-Jun-14 23:11N 40°43' E 027°39'211.8
2018-Jun-14 23:00N 40°42' E 027°36'7710.8
2018-Jun-14 15:50N 40°01' E 026°11'5 9.0
2018-Jun-14 15:17N 39°59' E 026°04'3 8.7
2018-Jun-14 14:58N 39°59' E 026°01'4 8.2
2018-Jun-14 14:25N 39°55' E 025°57'5 8.0
2018-Jun-14 13:44N 39°51' E 025°53'2 8.5
2018-Jun-14 13:29N 39°49' E 025°51'4 8.8
2018-Jun-14 13:00N 39°46' E 025°48'3312.2
2018-Jun-14 10:18N 39°18' E 025°24'612.7
2018-Jun-14 09:47N 39°13' E 025°20'412.9
2018-Jun-14 09:30N 39°10' E 025°17'1313.5
2018-Jun-14 08:33N 38°58' E 025°10'214.7
2018-Jun-14 08:27N 38°57' E 025°09'48911.3
2018-Jun-12 13:20N 35°01' E 016°13'1113.2
2018-Jun-12 12:29N 34°59' E 016°00'613.1
2018-Jun-12 12:00N 34°58' E 015°52'712.9
2018-Jun-12 11:30N 34°57' E 015°45'613.0
2018-Jun-12 11:00N 34°55' E 015°37'713.2
2018-Jun-12 10:30N 34°54' E 015°29'613.2
2018-Jun-12 10:00N 34°53' E 015°21'713.1
2018-Jun-12 09:30N 34°52' E 015°13'613.2
2018-Jun-12 09:00N 34°51' E 015°05'7312.8
2018-Jun-12 03:20N 34°40' E 013°38'4212.6
2018-Jun-11 23:59N 34°34' E 012°47'812.4
2018-Jun-11 23:19N 34°32' E 012°37'412.4
2018-Jun-11 22:59N 34°32' E 012°32'612.5
2018-Jun-11 22:30N 34°31' E 012°25'612.7
2018-Jun-11 22:00N 34°30' E 012°17'612.9
2018-Jun-11 21:30N 34°29' E 012°10'712.9
2018-Jun-11 20:57N 34°28' E 012°01'713.0
2018-Jun-11 20:23N 34°27' E 011°52'513.0
2018-Jun-11 20:00N 34°26' E 011°46'613.0
2018-Jun-11 19:30N 34°25' E 011°39'713.1
2018-Jun-11 19:00N 34°24' E 011°31'1313.3
2018-Jun-11 18:01N 34°22' E 011°15'213.4
2018-Jun-11 17:52N 34°21' E 011°13'513.5
2018-Jun-11 17:30N 34°20' E 011°07'  

Dump ship's entire track history